Time;durP1;ratioP1;P1;durP2;ratioP2;P2;SDS_P1;SDS_P2;PMS_P1;PMS_P2;Temp;Humidity;BMP_temperature;BMP_pressure;BME280_temperature;BME280_humidity;BME280_pressure;Samples;Min_cycle;Max_cycle;Signal;HPM_P1;HPM_P2
2022/04/23 00:00:57;;;;;;;5.22;4.40;;;14.40;82.00;;;;;;5066315;28;20177;-69
2022/04/23 00:03:25;;;;;;;6.03;5.43;;;14.30;81.80;;;;;;5074470;28;20217;-69
2022/04/23 00:05:51;;;;;;;6.15;5.25;;;14.30;83.60;;;;;;5114389;27;20200;-69
2022/04/23 00:08:21;;;;;;;5.75;4.85;;;14.30;82.90;;;;;;5082575;28;20193;-69
2022/04/23 00:10:49;;;;;;;5.40;4.90;;;14.30;83.80;;;;;;5071637;28;20200;-69
2022/04/23 00:13:17;;;;;;;5.53;5.00;;;14.20;83.50;;;;;;5105388;28;20266;-69
2022/04/23 00:15:43;;;;;;;6.10;4.72;;;14.20;83.00;;;;;;5100944;28;20172;-68
2022/04/23 00:18:11;;;;;;;6.30;5.13;;;14.10;83.40;;;;;;5070655;28;20314;-69
2022/04/23 00:20:38;;;;;;;5.15;4.60;;;14.10;83.60;;;;;;5072462;28;20176;-69
2022/04/23 00:23:05;;;;;;;5.70;5.20;;;14.10;83.20;;;;;;5062228;28;20180;-68
2022/04/23 00:25:31;;;;;;;6.88;5.43;;;14.00;83.60;;;;;;5076998;28;20201;-69
2022/04/23 00:27:58;;;;;;;7.03;5.50;;;14.00;84.40;;;;;;5071088;28;20176;-69
2022/04/23 00:30:26;;;;;;;5.90;5.30;;;13.90;84.80;;;;;;5061997;28;20223;-68
2022/04/23 00:32:52;;;;;;;6.88;5.65;;;13.90;84.80;;;;;;5067211;28;20196;-68
2022/04/23 00:35:18;;;;;;;6.30;5.47;;;13.80;85.50;;;;;;5073697;28;20176;-69
2022/04/23 00:37:50;;;;;;;6.05;5.45;;;13.80;85.90;;;;;;5074024;28;20173;-69
2022/04/23 00:40:18;;;;;;;6.60;5.55;;;13.80;86.00;;;;;;5100663;27;20201;-68
2022/04/23 00:43:01;;;;;;;6.47;5.18;;;13.70;86.00;;;;;;5086877;28;20185;-68
2022/04/23 00:45:27;;;;;;;5.78;5.18;;;13.70;87.30;;;;;;5067264;28;20955;-68
2022/04/23 00:47:53;;;;;;;8.05;5.45;;;13.60;86.50;;;;;;5074319;28;20248;-69
2022/04/23 00:50:24;;;;;;;6.53;5.15;;;13.60;86.20;;;;;;5065120;28;20276;-68
2022/04/23 00:52:57;;;;;;;5.78;4.80;;;13.60;86.30;;;;;;5074006;28;20188;-69
2022/04/23 00:55:26;;;;;;;4.97;4.47;;;13.50;86.90;;;;;;5065643;28;20403;-65
2022/04/23 00:57:57;;;;;;;5.65;4.47;;;13.50;86.30;;;;;;5073744;28;20173;-69
2022/04/23 01:00:23;;;;;;;5.43;4.63;;;13.50;87.00;;;;;;5075014;28;20196;-68
2022/04/23 01:02:48;;;;;;;6.05;4.85;;;13.50;87.00;;;;;;5086258;28;20230;-69
2022/04/23 01:05:16;;;;;;;6.80;4.97;;;13.40;86.90;;;;;;5066063;28;20185;-68
2022/04/23 01:07:43;;;;;;;6.40;5.18;;;13.40;87.20;;;;;;5066560;28;20252;-68
2022/04/23 01:10:10;;;;;;;5.95;5.20;;;13.40;87.50;;;;;;5077012;28;20197;-69
2022/04/23 01:12:38;;;;;;;5.65;5.00;;;13.40;87.60;;;;;;5098430;28;20199;-68
2022/04/23 01:15:10;;;;;;;5.90;5.28;;;13.30;87.50;;;;;;5073836;28;20176;-68
2022/04/23 01:17:39;;;;;;;5.60;5.03;;;13.30;88.50;;;;;;5067117;28;20180;-68
2022/04/23 01:20:09;;;;;;;6.82;5.60;;;13.30;88.30;;;;;;5094436;28;20358;-65
2022/04/23 01:22:37;;;;;;;5.78;5.18;;;13.30;88.50;;;;;;5073333;28;20256;-66
2022/04/23 01:25:12;;;;;;;6.25;5.10;;;13.20;88.50;;;;;;5073905;28;20200;-66
2022/04/23 01:27:43;;;;;;;6.15;5.10;;;13.20;89.60;;;;;;5073747;28;20172;-66
2022/04/23 01:30:12;;;;;;;6.25;5.60;;;13.10;88.90;;;;;;5073743;28;20245;-65
2022/04/23 01:32:38;;;;;;;6.30;5.70;;;13.10;89.50;;;;;;5072777;28;20217;-66
2022/04/23 01:35:05;;;;;;;7.07;5.78;;;13.10;89.50;;;;;;5073423;28;20180;-66
2022/04/23 01:37:33;;;;;;;6.47;5.72;;;13.10;89.90;;;;;;5064645;28;20231;-68
2022/04/23 01:39:59;;;;;;;7.13;5.93;;;13.10;90.10;;;;;;5057146;28;20178;-66
2022/04/23 01:42:26;;;;;;;6.65;5.75;;;13.00;90.10;;;;;;5059053;28;20235;-66
2022/04/23 01:44:53;;;;;;;7.05;5.85;;;13.00;90.40;;;;;;5054765;28;20180;-65
2022/04/23 01:47:19;;;;;;;7.95;6.63;;;13.00;90.90;;;;;;5073162;28;20208;-66
2022/04/23 01:49:45;;;;;;;7.80;6.55;;;12.90;91.00;;;;;;5072464;28;20207;-66
2022/04/23 01:52:12;;;;;;;6.85;6.15;;;12.90;91.30;;;;;;5075962;28;20193;-66
2022/04/23 01:54:40;;;;;;;6.70;5.82;;;12.90;91.30;;;;;;5076781;28;20169;-67
2022/04/23 01:57:11;;;;;;;8.07;5.97;;;12.80;91.20;;;;;;5076407;28;20177;-66
2022/04/23 01:59:39;;;;;;;7.53;6.35;;;12.80;91.60;;;;;;5077202;28;20196;-66
2022/04/23 02:02:09;;;;;;;7.20;6.28;;;12.80;91.30;;;;;;5076799;28;20200;-66
2022/04/23 02:04:35;;;;;;;7.53;6.72;;;12.80;91.40;;;;;;5087379;28;20279;-66
2022/04/23 02:07:03;;;;;;;8.63;7.30;;;12.70;91.60;;;;;;5061919;28;20254;-66
2022/04/23 02:09:29;;;;;;;8.20;7.32;;;12.70;92.00;;;;;;5072509;28;20193;-66
2022/04/23 02:11:56;;;;;;;8.43;6.70;;;12.70;92.30;;;;;;5061511;28;20263;-66
2022/04/23 02:14:24;;;;;;;8.15;6.82;;;12.70;92.20;;;;;;5073038;28;20195;-67
2022/04/23 02:16:50;;;;;;;7.70;6.90;;;12.60;92.30;;;;;;5086248;28;20175;-66
2022/04/23 02:19:16;;;;;;;8.77;6.90;;;12.60;92.70;;;;;;5076883;28;20192;-66
2022/04/23 02:21:44;;;;;;;7.13;6.43;;;12.60;92.70;;;;;;5071504;28;20173;-67
2022/04/23 02:24:12;;;;;;;8.48;7.03;;;12.60;92.70;;;;;;5071116;28;20185;-67
2022/04/23 02:26:37;;;;;;;7.40;6.60;;;12.60;93.50;;;;;;5056663;28;20178;-68
2022/04/23 02:29:06;;;;;;;7.25;6.28;;;12.60;93.30;;;;;;5056443;28;20199;-67
2022/04/23 02:31:36;;;;;;;8.40;6.93;;;12.60;93.70;;;;;;5102486;28;20219;-68
2022/04/23 02:34:04;;;;;;;8.23;6.97;;;12.60;93.80;;;;;;5076161;28;20255;-67
2022/04/23 02:36:29;;;;;;;8.38;7.18;;;12.50;93.50;;;;;;5058041;28;20189;-66
2022/04/23 02:39:01;;;;;;;8.57;7.40;;;12.50;93.70;;;;;;5067847;28;20197;-67
2022/04/23 02:41:27;;;;;;;9.43;7.43;;;12.50;94.20;;;;;;5105000;28;20214;-67
2022/04/23 02:43:53;;;;;;;10.07;8.43;;;12.50;94.00;;;;;;5076463;28;20192;-66
2022/04/23 02:46:19;;;;;;;12.37;7.60;;;12.40;94.90;;;;;;5111081;27;20209;-68
2022/04/23 02:48:47;;;;;;;10.38;8.40;;;12.40;95.00;;;;;;5064923;28;20436;-67
2022/04/23 02:51:15;;;;;;;10.15;7.70;;;12.40;94.90;;;;;;5057842;28;20188;-66
2022/04/23 02:53:42;;;;;;;8.77;7.40;;;12.40;95.00;;;;;;5073116;28;20177;-66
2022/04/23 02:56:13;;;;;;;9.63;7.33;;;12.30;95.10;;;;;;5104521;28;20286;-67
2022/04/23 02:58:40;;;;;;;8.38;7.40;;;12.30;95.40;;;;;;5080122;28;20241;-66
2022/04/23 03:01:09;;;;;;;9.20;7.67;;;12.30;95.40;;;;;;5058429;28;20199;-65
2022/04/23 03:03:38;;;;;;;10.83;8.37;;;12.30;95.70;;;;;;5067346;28;20210;-67
2022/04/23 03:06:07;;;;;;;10.90;9.23;;;12.30;96.00;;;;;;5075001;28;20393;-66
2022/04/23 03:08:37;;;;;;;9.90;8.10;;;12.20;97.10;;;;;;5072705;28;20268;-66
2022/04/23 03:11:05;;;;;;;8.95;7.70;;;12.20;96.60;;;;;;5069065;28;20257;-66
2022/04/23 03:13:31;;;;;;;9.50;7.88;;;12.20;96.70;;;;;;5100705;27;20226;-67
2022/04/23 03:15:56;;;;;;;8.03;7.20;;;12.20;96.80;;;;;;5073962;28;20177;-66
2022/04/23 03:18:22;;;;;;;10.50;8.27;;;12.20;96.80;;;;;;5091212;28;20203;-66
2022/04/23 03:20:48;;;;;;;8.83;7.90;;;12.20;97.40;;;;;;5079663;28;20229;-66
2022/04/23 03:23:14;;;;;;;10.70;8.33;;;12.20;97.30;;;;;;5075559;28;20177;-66
2022/04/23 03:25:40;;;;;;;10.80;8.38;;;12.10;97.50;;;;;;5071914;28;20358;-66
2022/04/23 03:28:10;;;;;;;9.13;8.10;;;12.10;98.20;;;;;;5065690;28;20177;-66
2022/04/23 03:30:36;;;;;;;10.38;8.07;;;12.10;98.00;;;;;;5095532;28;20213;-66
2022/04/23 03:33:01;;;;;;;8.97;7.80;;;12.10;97.90;;;;;;5071075;28;20177;-66
2022/04/23 03:35:27;;;;;;;9.15;7.50;;;12.10;98.00;;;;;;5077014;28;20268;-65
2022/04/23 03:37:55;;;;;;;8.60;7.00;;;12.10;98.00;;;;;;5064305;28;20207;-66
2022/04/23 03:40:21;;;;;;;8.75;7.70;;;12.10;97.90;;;;;;5071485;28;20184;-66
2022/04/23 03:42:49;;;;;;;8.43;7.57;;;12.10;98.10;;;;;;5066307;28;20279;-67
2022/04/23 03:45:18;;;;;;;9.50;8.17;;;12.10;98.30;;;;;;5055467;28;20185;-67
2022/04/23 03:47:48;;;;;;;10.47;8.50;;;12.00;98.20;;;;;;5074342;28;20172;-68
2022/04/23 03:50:17;;;;;;;8.33;7.30;;;12.00;98.40;;;;;;5074911;28;20217;-66
2022/04/23 03:52:45;;;;;;;8.77;7.50;;;12.00;98.90;;;;;;5055255;28;20255;-67
2022/04/23 03:55:11;;;;;;;9.00;6.87;;;11.90;98.70;;;;;;5101104;28;20207;-67
2022/04/23 03:57:54;;;;;;;8.47;7.13;;;11.90;98.40;;;;;;5073315;28;20176;-67
2022/04/23 04:00:22;;;;;;;8.60;7.40;;;11.90;99.40;;;;;;5108679;28;20188;-66
2022/04/23 04:02:49;;;;;;;8.20;7.30;;;11.90;98.80;;;;;;5109030;28;20291;-66
2022/04/23 04:05:18;;;;;;;10.23;7.60;;;11.90;98.60;;;;;;5075092;28;20275;-66
2022/04/23 04:07:47;;;;;;;10.00;7.53;;;11.80;98.60;;;;;;5066734;28;20234;-67
2022/04/23 04:10:17;;;;;;;9.90;7.80;;;11.80;98.80;;;;;;5069419;28;20261;-66
2022/04/23 04:12:47;;;;;;;8.67;7.40;;;11.80;99.30;;;;;;5086506;28;20172;-67
2022/04/23 04:15:15;;;;;;;8.63;7.60;;;11.80;99.30;;;;;;5075673;28;20203;-67
2022/04/23 04:17:42;;;;;;;8.40;7.50;;;11.70;98.90;;;;;;5072727;28;20176;-68
2022/04/23 04:20:12;;;;;;;8.77;7.87;;;11.70;99.20;;;;;;5058508;28;20347;-66
2022/04/23 04:22:39;;;;;;;9.00;7.33;;;11.60;99.70;;;;;;5074438;28;20208;-67
2022/04/23 04:25:05;;;;;;;9.47;7.80;;;11.60;99.40;;;;;;5068268;28;20204;-66
2022/04/23 04:27:32;;;;;;;9.97;7.63;;;11.60;99.70;;;;;;5103348;28;20242;-67
2022/04/23 04:29:58;;;;;;;8.97;7.67;;;11.50;99.80;;;;;;5073216;28;20231;-66
2022/04/23 04:32:26;;;;;;;8.93;7.10;;;11.50;99.90;;;;;;5067282;28;20209;-66
2022/04/23 04:34:56;;;;;;;9.07;7.63;;;11.50;99.90;;;;;;5055402;28;20184;-67
2022/04/23 04:37:22;;;;;;;22.53;17.10;;;11.50;99.90;;;;;;5104033;28;20294;-67
2022/04/23 04:39:48;;;;;;;16.17;13.20;;;11.50;99.90;;;;;;5069219;28;20181;-67
2022/04/23 04:42:16;;;;;;;12.17;9.83;;;11.50;99.90;;;;;;5058391;28;20191;-66
2022/04/23 04:44:41;;;;;;;10.90;9.10;;;11.40;99.90;;;;;;5063890;28;20173;-66
2022/04/23 04:47:09;;;;;;;9.60;8.47;;;11.40;99.90;;;;;;5106071;28;20330;-66
2022/04/23 04:49:35;;;;;;;12.53;10.27;;;11.40;99.90;;;;;;5066478;28;20212;-66
2022/04/23 04:52:01;;;;;;;12.53;9.97;;;11.40;99.90;;;;;;5074164;28;20245;-67
2022/04/23 04:54:26;;;;;;;10.10;8.80;;;11.40;99.90;;;;;;5075431;28;20259;-67
2022/04/23 04:56:53;;;;;;;9.37;8.20;;;11.40;99.90;;;;;;5069134;28;20263;-66
2022/04/23 04:59:23;;;;;;;10.07;8.70;;;11.40;99.90;;;;;;5062920;28;20184;-67
2022/04/23 05:01:50;;;;;;;9.23;7.90;;;11.40;99.90;;;;;;5070278;28;20201;-67
2022/04/23 05:04:16;;;;;;;8.47;7.57;;;11.40;99.90;;;;;;5076248;28;20188;-66
2022/04/23 05:06:42;;;;;;;31.27;21.87;;;11.50;99.90;;;;;;5084604;28;20181;-67
2022/04/23 05:09:09;;;;;;;25.70;20.00;;;11.40;99.90;;;;;;5107250;28;20242;-67
2022/04/23 05:11:38;;;;;;;13.93;11.73;;;11.50;99.90;;;;;;5089691;28;20279;-66
2022/04/23 05:14:04;;;;;;;12.13;10.40;;;11.50;99.90;;;;;;5073408;28;20205;-67
2022/04/23 05:16:29;;;;;;;10.90;9.30;;;11.50;99.90;;;;;;5063292;28;20188;-66
2022/04/23 05:18:55;;;;;;;10.03;8.40;;;11.50;99.90;;;;;;5111606;27;20287;-66
2022/04/23 05:21:23;;;;;;;10.43;8.07;;;11.60;99.90;;;;;;5068463;28;20177;-66
2022/04/23 05:23:51;;;;;;;9.67;7.33;;;11.60;99.90;;;;;;5074382;28;20227;-66
2022/04/23 05:26:19;;;;;;;9.80;7.47;;;11.60;99.90;;;;;;5086773;28;20256;-67
2022/04/23 05:28:44;;;;;;;7.90;6.83;;;11.60;99.90;;;;;;5069571;28;20180;-67
2022/04/23 05:31:10;;;;;;;8.23;6.93;;;11.60;99.90;;;;;;5069141;28;20272;-66
2022/04/23 05:33:38;;;;;;;7.60;6.77;;;11.70;99.90;;;;;;5064208;28;20258;-67
2022/04/23 05:36:08;;;;;;;7.93;7.10;;;11.70;99.90;;;;;;5097245;28;20382;-66
2022/04/23 05:38:39;;;;;;;9.10;7.40;;;11.70;99.90;;;;;;5066048;28;20274;-64
2022/04/23 05:41:07;;;;;;;9.37;7.57;;;11.80;99.90;;;;;;5094695;28;20185;-67
2022/04/23 05:43:35;;;;;;;8.77;7.05;;;11.80;99.90;;;;;;5077913;28;20207;-66
2022/04/23 05:46:03;;;;;;;8.37;7.50;;;11.80;99.90;;;;;;5072974;28;20256;-65
2022/04/23 05:48:31;;;;;;;8.60;6.63;;;11.90;99.90;;;;;;5070387;28;20188;-66
2022/04/23 05:51:01;;;;;;;8.87;7.27;;;11.90;99.90;;;;;;5067213;28;20209;-66
2022/04/23 05:53:27;;;;;;;9.15;7.28;;;12.00;99.90;;;;;;5072641;28;20220;-66
2022/04/23 05:55:57;;;;;;;8.50;7.33;;;12.00;99.90;;;;;;5073039;28;20211;-66
2022/04/23 05:58:23;;;;;;;8.38;7.07;;;12.10;99.90;;;;;;5071422;28;20175;-65
2022/04/23 06:00:54;;;;;;;7.97;7.03;;;12.20;99.90;;;;;;5066024;28;20288;-68
2022/04/23 06:03:20;;;;;;;8.98;7.65;;;12.20;99.90;;;;;;5091790;28;20209;-66
2022/04/23 06:05:50;;;;;;;8.82;7.53;;;12.30;99.90;;;;;;5057636;28;20271;-66
2022/04/23 06:08:16;;;;;;;9.02;7.75;;;12.40;99.90;;;;;;5053513;28;20205;-66
2022/04/23 06:10:42;;;;;;;9.73;7.90;;;12.40;99.90;;;;;;5088429;28;20257;-66
2022/04/23 06:13:08;;;;;;;8.35;7.45;;;12.50;99.90;;;;;;5077046;28;20168;-66
2022/04/23 06:15:34;;;;;;;7.82;6.68;;;12.50;99.90;;;;;;5076645;28;20243;-66
2022/04/23 06:18:02;;;;;;;8.80;6.88;;;12.50;99.90;;;;;;5069281;28;20185;-67
2022/04/23 06:20:33;;;;;;;9.63;8.15;;;12.60;99.90;;;;;;5080825;28;20196;-66
2022/04/23 06:23:04;;;;;;;9.18;7.30;;;12.70;99.90;;;;;;5062806;28;20252;-66
2022/04/23 06:25:31;;;;;;;8.38;7.50;;;12.70;99.90;;;;;;5107116;28;20180;-66
2022/04/23 06:27:56;;;;;;;8.05;6.55;;;12.80;99.90;;;;;;5071327;28;20188;-65
2022/04/23 06:30:24;;;;;;;12.88;7.25;;;12.90;99.90;;;;;;5073231;28;20204;-66
2022/04/23 06:32:50;;;;;;;7.10;6.40;;;12.90;99.90;;;;;;5072997;28;20239;-65
2022/04/23 06:35:19;;;;;;;7.85;6.88;;;13.00;99.90;;;;;;5054216;28;20193;-65
2022/04/23 06:37:47;;;;;;;7.85;6.35;;;13.00;99.90;;;;;;5058509;28;20196;-66
2022/04/23 06:40:13;;;;;;;8.15;7.00;;;13.10;99.90;;;;;;5102936;27;20185;-66
2022/04/23 06:42:40;;;;;;;8.07;7.28;;;13.20;99.90;;;;;;5112633;27;20181;-65
2022/04/23 06:45:09;;;;;;;7.47;6.63;;;13.20;99.90;;;;;;5084136;28;20342;-67
2022/04/23 06:47:34;;;;;;;9.73;7.55;;;13.30;99.90;;;;;;5068055;28;20201;-66
2022/04/23 06:50:00;;;;;;;8.95;7.50;;;13.40;99.90;;;;;;5057240;28;20239;-68
2022/04/23 06:52:27;;;;;;;8.05;6.35;;;13.50;99.90;;;;;;5069610;28;20180;-66
2022/04/23 06:54:55;;;;;;;7.57;6.18;;;13.50;99.90;;;;;;5077386;28;20238;-66
2022/04/23 06:57:24;;;;;;;7.40;6.18;;;13.60;99.90;;;;;;5064007;28;20224;-65
2022/04/23 06:59:53;;;;;;;6.50;5.80;;;13.70;99.90;;;;;;5070529;28;20272;-65
2022/04/23 07:02:20;;;;;;;5.82;5.22;;;13.80;99.90;;;;;;5075324;28;20204;-66
2022/04/23 07:04:47;;;;;;;6.25;5.65;;;13.80;99.90;;;;;;5075279;28;20393;-66
2022/04/23 07:07:15;;;;;;;5.80;5.20;;;13.90;99.90;;;;;;5083414;28;20181;-68
2022/04/23 07:09:43;;;;;;;6.43;5.80;;;14.00;99.90;;;;;;5100912;28;20232;-67
2022/04/23 07:12:09;;;;;;;6.15;5.55;;;14.00;99.90;;;;;;5063914;28;20322;-67
2022/04/23 07:14:35;;;;;;;5.80;5.18;;;14.10;99.90;;;;;;5058009;28;20249;-67
2022/04/23 07:17:03;;;;;;;6.20;5.55;;;14.20;99.90;;;;;;5060803;28;20408;-67
2022/04/23 07:19:30;;;;;;;6.60;5.18;;;14.30;99.90;;;;;;5074972;28;20251;-66
2022/04/23 07:21:55;;;;;;;6.25;5.65;;;14.30;99.90;;;;;;5075432;28;20208;-67
2022/04/23 07:24:23;;;;;;;6.03;5.43;;;14.40;99.90;;;;;;5071852;28;20185;-67
2022/04/23 07:26:49;;;;;;;6.43;5.82;;;14.50;99.90;;;;;;5076105;28;20251;-66
2022/04/23 07:29:15;;;;;;;6.10;5.50;;;14.60;99.90;;;;;;5072291;28;20190;-67
2022/04/23 07:31:40;;;;;;;6.68;5.05;;;14.60;99.90;;;;;;5076018;28;20340;-67
2022/04/23 07:39:37;;;;;;;5.78;5.18;;;14.90;99.90;;;;;;5075758;28;20191;-66
2022/04/23 07:42:07;;;;;;;5.13;4.63;;;14.90;99.90;;;;;;5091368;28;20177;-66
2022/04/23 07:44:34;;;;;;;6.85;5.70;;;15.00;99.90;;;;;;5075735;28;20196;-67
2022/04/23 07:47:00;;;;;;;5.15;4.65;;;15.10;99.90;;;;;;5078793;28;20209;-69
2022/04/23 07:49:30;;;;;;;5.25;4.50;;;15.20;99.90;;;;;;5061961;28;20203;-67
2022/04/23 07:51:56;;;;;;;5.60;4.20;;;15.30;99.90;;;;;;5063196;28;20216;-66
2022/04/23 07:54:24;;;;;;;4.30;3.90;;;15.40;99.90;;;;;;5088499;28;20196;-67
2022/04/23 07:56:52;;;;;;;5.35;4.85;;;15.40;99.90;;;;;;5055209;28;20166;-67
2022/04/23 07:59:17;;;;;;;5.03;4.45;;;15.50;99.90;;;;;;5074978;28;20172;-67
2022/04/23 08:01:43;;;;;;;7.28;4.20;;;15.60;99.90;;;;;;5075186;28;20212;-67
2022/04/23 08:04:09;;;;;;;5.97;4.80;;;15.70;99.90;;;;;;5074795;28;20169;-67
2022/04/23 08:06:38;;;;;;;5.55;4.55;;;15.80;99.90;;;;;;5075596;28;20204;-67
2022/04/23 08:09:04;;;;;;;5.55;4.70;;;15.80;99.90;;;;;;5068345;28;20258;-69
2022/04/23 08:11:32;;;;;;;5.28;4.78;;;15.80;99.90;;;;;;5072220;28;20251;-67
2022/04/23 08:14:00;;;;;;;5.60;4.55;;;15.90;99.90;;;;;;5071696;28;20184;-66
2022/04/23 08:16:28;;;;;;;6.60;5.82;;;16.00;99.90;;;;;;5070741;28;20180;-66
2022/04/23 08:18:54;;;;;;;5.28;4.40;;;16.00;99.70;;;;;;5074036;28;20208;-67
2022/04/23 08:21:21;;;;;;;4.70;4.30;;;16.10;99.80;;;;;;5074709;28;20203;-66
2022/04/23 08:23:46;;;;;;;4.57;4.18;;;16.10;99.90;;;;;;5077866;28;20256;-66
2022/04/23 08:26:12;;;;;;;4.78;4.30;;;16.20;99.70;;;;;;5088483;28;20235;-68
2022/04/23 08:31:24;;;;;;;5.65;4.22;;;16.40;99.40;;;;;;5071475;28;20230;-68
2022/04/23 08:33:59;;;;;;;5.07;4.57;;;16.40;99.20;;;;;;5073147;28;20168;-68
2022/04/23 08:36:40;;;;;;;5.70;4.60;;;16.50;99.20;;;;;;5098544;28;20190;-68
2022/04/23 08:39:11;;;;;;;5.07;4.38;;;16.60;99.10;;;;;;5091459;28;20295;-66
2022/04/23 08:41:37;;;;;;;6.15;5.15;;;16.60;98.90;;;;;;5091447;28;20267;-68
2022/04/23 08:44:07;;;;;;;4.90;4.40;;;16.70;98.40;;;;;;5077681;28;20227;-67
2022/04/23 08:46:39;;;;;;;4.82;4.32;;;16.70;98.40;;;;;;5107201;28;20179;-67
2022/04/23 08:49:16;;;;;;;7.70;5.60;;;16.80;98.20;;;;;;5097599;28;20178;-68
2022/04/23 08:51:45;;;;;;;4.90;4.40;;;16.80;97.60;;;;;;5056211;28;20196;-68
2022/04/23 08:54:15;;;;;;;4.35;3.90;;;16.90;97.70;;;;;;5074055;28;20172;-68
2022/04/23 08:56:45;;;;;;;3.95;3.55;;;16.90;97.90;;;;;;5064787;28;20257;-68
2022/04/23 08:59:15;;;;;;;5.88;4.95;;;17.00;98.00;;;;;;5066751;28;20250;-68
2022/04/23 09:01:44;;;;;;;6.32;4.53;;;17.10;97.40;;;;;;5062315;28;20221;-68
2022/04/23 09:04:13;;;;;;;4.57;4.07;;;17.20;97.80;;;;;;5070336;28;20204;-67
2022/04/23 09:06:46;;;;;;;4.30;3.60;;;17.30;97.60;;;;;;5054213;28;20177;-67
2022/04/23 09:09:15;;;;;;;4.60;3.80;;;17.40;97.50;;;;;;5064081;28;20188;-67
2022/04/23 09:11:46;;;;;;;3.72;3.20;;;17.40;97.00;;;;;;5054876;28;20177;-67
2022/04/23 09:14:31;;;;;;;4.10;3.70;;;17.50;97.00;;;;;;5074168;28;20169;-68
2022/04/23 09:25:39;;;;;;;4.40;4.00;;;17.80;96.70;;;;;;5066957;28;20219;-68
2022/04/23 09:28:22;;;;;;;4.93;4.18;;;17.90;95.70;;;;;;5059338;28;20180;-67
2022/04/23 09:30:54;;;;;;;3.70;3.40;;;18.00;94.60;;;;;;5060052;28;20554;-74
2022/04/23 09:33:41;;;;;;;3.83;3.50;;;18.00;95.80;;;;;;5066293;28;20173;-74
2022/04/23 09:36:06;;;;;;;5.43;3.58;;;18.10;95.60;;;;;;5070383;28;20192;-74
2022/04/23 09:38:37;;;;;;;3.50;3.20;;;18.20;95.70;;;;;;5103695;28;20263;-75
2022/04/23 09:41:25;;;;;;;3.70;3.00;;;18.20;95.40;;;;;;5065153;28;20212;-74
2022/04/23 09:44:12;;;;;;;3.45;3.15;;;18.30;95.70;;;;;;5054978;28;20198;-75
2022/04/23 09:46:44;;;;;;;3.30;3.00;;;18.50;95.20;;;;;;5059231;28;20177;-74
2022/04/23 09:49:11;;;;;;;5.25;4.03;;;18.50;95.30;;;;;;5072994;28;20204;-74
2022/04/23 09:51:37;;;;;;;5.00;4.05;;;18.70;95.10;;;;;;5069941;28;20177;-73
2022/04/23 09:54:03;;;;;;;4.30;3.90;;;18.70;94.40;;;;;;5085166;28;20196;-74
2022/04/23 09:56:32;;;;;;;5.05;4.25;;;18.80;94.40;;;;;;5067574;28;20170;-76
2022/04/23 09:58:58;;;;;;;5.28;3.78;;;18.90;94.30;;;;;;5072746;28;20169;-75
2022/04/23 10:01:24;;;;;;;5.25;4.00;;;19.00;94.10;;;;;;5083140;28;20182;-74
2022/04/23 10:03:54;;;;;;;4.10;3.70;;;19.10;94.20;;;;;;5099436;28;20259;-75
2022/04/23 10:06:23;;;;;;;4.20;3.80;;;19.20;93.70;;;;;;5061479;28;20223;-76
2022/04/23 10:08:52;;;;;;;5.40;4.20;;;19.30;93.20;;;;;;5093080;28;20207;-74
2022/04/23 10:11:25;;;;;;;4.50;3.78;;;19.50;92.80;;;;;;5085677;28;20201;-76
2022/04/23 10:13:59;;;;;;;4.47;4.00;;;19.80;92.00;;;;;;5072898;28;20187;-74
2022/04/23 10:16:29;;;;;;;4.32;3.72;;;20.20;91.00;;;;;;5072183;28;20176;-73
2022/04/23 10:18:56;;;;;;;4.32;3.35;;;20.60;91.20;;;;;;5076732;28;20212;-74
2022/04/23 10:21:30;;;;;;;4.82;4.03;;;21.00;90.60;;;;;;5078159;28;20268;-73
2022/04/23 10:24:28;;;;;;;4.10;3.70;;;21.20;89.20;;;;;;5084250;28;20181;-74
2022/04/23 10:27:10;;;;;;;4.05;3.63;;;21.50;86.90;;;;;;5085468;28;20214;-74
2022/04/23 10:29:38;;;;;;;3.08;2.78;;;21.70;86.20;;;;;;5084242;28;20219;-73
2022/04/23 10:32:13;;;;;;;4.75;4.22;;;21.90;87.70;;;;;;5098603;28;20196;-69
2022/04/23 10:34:40;;;;;;;3.75;3.42;;;22.10;79.50;;;;;;5075733;28;20180;-68
2022/04/23 10:37:25;;;;;;;3.65;3.35;;;22.20;82.50;;;;;;5088659;28;20216;-76
2022/04/23 10:39:51;;;;;;;4.00;3.55;;;22.30;78.20;;;;;;5060533;28;20376;-76
2022/04/23 10:42:18;;;;;;;4.00;3.67;;;22.40;79.50;;;;;;5088831;28;20173;-75
2022/04/23 10:44:49;;;;;;;4.25;3.85;;;22.40;78.20;;;;;;5078051;28;20196;-72
2022/04/23 10:47:30;;;;;;;4.32;3.90;;;22.50;78.50;;;;;;5065644;28;20168;-76
2022/04/23 10:50:26;;;;;;;5.55;3.95;;;22.50;75.70;;;;;;5068799;28;20308;-74
2022/04/23 10:53:02;;;;;;;4.35;3.95;;;22.50;75.00;;;;;;5073607;28;20260;-74
2022/04/23 10:55:29;;;;;;;4.72;3.78;;;22.40;73.00;;;;;;5064772;28;20187;-74
2022/04/23 10:58:15;;;;;;;5.30;4.32;;;22.40;76.20;;;;;;5089575;28;20187;-75
2022/04/23 11:00:46;;;;;;;6.43;5.50;;;22.40;75.40;;;;;;5076754;28;20263;-74
2022/04/23 11:03:14;;;;;;;4.90;4.40;;;22.40;72.50;;;;;;5068801;28;20212;-75
2022/04/23 11:13:58;;;;;;;5.97;4.25;;;22.10;72.40;;;;;;5076050;28;20203;-75
2022/04/23 11:16:29;;;;;;;4.25;3.85;;;22.20;75.30;;;;;;5083905;28;20204;-74
2022/04/23 11:18:58;;;;;;;5.15;4.43;;;22.30;75.50;;;;;;5075351;28;20194;-74
2022/04/23 11:21:32;;;;;;;6.88;5.28;;;22.30;74.80;;;;;;5059348;28;20249;-74
2022/04/23 11:24:00;;;;;;;5.28;4.78;;;22.30;73.40;;;;;;5108835;28;20255;-74
2022/04/23 11:26:49;;;;;;;5.15;4.00;;;22.40;73.80;;;;;;5063093;28;20207;-77
2022/04/23 11:29:15;;;;;;;6.25;4.07;;;22.50;74.00;;;;;;5063764;28;20204;-76
2022/04/23 11:31:53;;;;;;;4.68;4.15;;;22.60;74.00;;;;;;5075619;28;20165;-76
2022/04/23 11:34:19;;;;;;;5.10;4.53;;;22.70;72.70;;;;;;5108442;28;20192;-72
2022/04/23 11:36:44;;;;;;;4.55;4.03;;;22.80;73.40;;;;;;5065713;28;20169;-77
2022/04/23 11:39:15;;;;;;;5.25;4.75;;;22.80;71.90;;;;;;5078174;28;20182;-76
2022/04/23 11:41:43;;;;;;;7.15;4.60;;;22.70;69.60;;;;;;5097091;28;20206;-75
2022/04/23 11:44:14;;;;;;;5.68;4.80;;;22.60;70.70;;;;;;5091194;28;20177;-76
2022/04/23 11:46:48;;;;;;;5.75;4.40;;;22.60;70.10;;;;;;5071570;28;20166;-76
2022/04/23 11:49:29;;;;;;;5.68;5.10;;;22.50;70.40;;;;;;5062972;28;20213;-75
2022/04/23 11:52:08;;;;;;;5.18;4.68;;;22.50;69.20;;;;;;5066876;28;20191;-76
2022/04/23 11:54:54;;;;;;;4.53;4.13;;;22.40;69.30;;;;;;5091209;28;20294;-75
2022/04/23 11:57:22;;;;;;;4.55;4.07;;;22.40;68.90;;;;;;5088954;28;20169;-75
2022/04/23 11:59:50;;;;;;;6.35;4.53;;;22.40;70.10;;;;;;5072570;28;20200;-72
2022/04/23 12:02:18;;;;;;;3.83;3.50;;;22.30;69.70;;;;;;5057792;28;20228;-77
2022/04/23 12:04:46;;;;;;;5.07;4.18;;;22.20;69.50;;;;;;5055063;28;20196;-77
2022/04/23 12:07:12;;;;;;;4.47;4.00;;;22.10;69.10;;;;;;5069384;28;20263;-76
2022/04/23 12:09:55;;;;;;;4.22;3.78;;;22.00;69.10;;;;;;5073407;28;20308;-75
2022/04/23 12:12:25;;;;;;;5.60;4.22;;;21.80;68.30;;;;;;5070304;28;20177;-76
2022/04/23 12:14:57;;;;;;;4.60;4.03;;;21.70;69.10;;;;;;5108895;27;20183;-77
2022/04/23 12:17:23;;;;;;;3.97;3.60;;;21.70;69.20;;;;;;5083058;28;20174;-76
2022/04/23 12:19:57;;;;;;;4.20;3.80;;;21.80;70.70;;;;;;5088483;28;20181;-76
2022/04/23 12:22:30;;;;;;;4.03;3.63;;;21.90;69.10;;;;;;5107157;27;20208;-76
2022/04/23 12:25:12;;;;;;;4.18;3.78;;;22.00;70.00;;;;;;5069371;28;20186;-76
2022/04/23 12:42:26;;;;;;;6.22;4.82;;;22.40;67.70;;;;;;5068519;28;20254;-76
2022/04/23 12:44:53;;;;;;;4.93;4.10;;;22.30;66.50;;;;;;5059896;28;20178;-75
2022/04/23 12:47:30;;;;;;;4.70;4.30;;;22.30;67.30;;;;;;5067610;28;20181;-74
2022/04/23 12:49:58;;;;;;;5.65;4.25;;;22.20;66.00;;;;;;5072261;28;20237;-75
2022/04/23 12:52:31;;;;;;;4.78;4.18;;;22.20;67.10;;;;;;5090469;28;20259;-73
2022/04/23 12:55:16;;;;;;;4.43;3.92;;;22.20;68.30;;;;;;5071181;28;20197;-75
2022/04/23 12:57:45;;;;;;;5.68;4.50;;;22.30;65.70;;;;;;5062471;28;20165;-72
2022/04/23 13:00:14;;;;;;;5.20;4.10;;;22.40;68.30;;;;;;5073273;28;20176;-74
2022/04/23 13:02:40;;;;;;;6.53;5.03;;;22.60;68.30;;;;;;5084761;28;20261;-75
2022/04/23 13:05:08;;;;;;;4.97;4.20;;;22.70;66.50;;;;;;5104083;28;20180;-76
2022/04/23 13:10:18;;;;;;;5.10;4.47;;;22.80;66.30;;;;;;5072419;28;20219;-74
2022/04/23 13:12:44;;;;;;;4.45;4.05;;;22.80;65.80;;;;;;5072328;28;20177;-76
2022/04/23 13:15:11;;;;;;;4.30;3.90;;;23.00;66.00;;;;;;5071560;28;20255;-74
2022/04/23 13:17:38;;;;;;;5.45;4.65;;;23.00;65.50;;;;;;5066823;28;20188;-76
2022/04/23 13:20:08;;;;;;;5.40;4.85;;;23.10;64.90;;;;;;5089449;28;20322;-69
2022/04/23 13:22:36;;;;;;;7.68;5.00;;;23.10;63.20;;;;;;5071720;28;20211;-73
2022/04/23 13:25:06;;;;;;;5.82;5.20;;;23.10;63.20;;;;;;5072708;28;20212;-76
2022/04/23 13:27:32;;;;;;;5.18;4.65;;;23.10;62.60;;;;;;5058693;28;20217;-75
2022/04/23 13:29:58;;;;;;;5.30;4.68;;;23.10;63.30;;;;;;5070632;28;20220;-75
2022/04/23 13:32:26;;;;;;;5.93;5.15;;;23.10;63.10;;;;;;5096855;28;20173;-75
2022/04/23 13:34:54;;;;;;;7.32;5.70;;;23.00;63.20;;;;;;5090904;28;20249;-75
2022/04/23 13:37:20;;;;;;;6.40;5.65;;;23.00;62.30;;;;;;5057906;28;20307;-75